sensor_id;sensor_type;location;lat;lon;timestamp;P1;durP1;ratioP1;P2;durP2;ratioP2
59416;SDS011;45222;52.458;20.914;2024-03-23T00:55:40;23.70;;;18.30;;
59416;SDS011;45222;52.458;20.914;2024-03-23T00:59:24;21.80;;;17.50;;
59416;SDS011;45222;52.458;20.914;2024-03-23T01:03:11;22.70;;;18.40;;
59416;SDS011;45222;52.458;20.914;2024-03-23T01:06:56;23.20;;;18.10;;
59416;SDS011;45222;52.458;20.914;2024-03-23T01:10:40;24.30;;;17.40;;
59416;SDS011;45222;52.458;20.914;2024-03-23T01:14:25;21.20;;;17.40;;
59416;SDS011;45222;52.458;20.914;2024-03-23T01:18:09;22.90;;;18.30;;
59416;SDS011;45222;52.458;20.914;2024-03-23T01:21:54;25.20;;;19.80;;
59416;SDS011;45222;52.458;20.914;2024-03-23T01:25:38;24.40;;;19.30;;
59416;SDS011;45222;52.458;20.914;2024-03-23T01:29:23;23.60;;;18.40;;
59416;SDS011;45222;52.458;20.914;2024-03-23T01:33:08;23.60;;;18.80;;
59416;SDS011;45222;52.458;20.914;2024-03-23T01:36:52;24.10;;;18.40;;
59416;SDS011;45222;52.458;20.914;2024-03-23T01:40:37;21.60;;;18.40;;
59416;SDS011;45222;52.458;20.914;2024-03-23T01:44:22;25.20;;;19.50;;
59416;SDS011;45222;52.458;20.914;2024-03-23T01:48:07;26.20;;;20.60;;
59416;SDS011;45222;52.458;20.914;2024-03-23T01:51:52;25.80;;;20.70;;
59416;SDS011;45222;52.458;20.914;2024-03-23T01:55:36;24.50;;;20.50;;
59416;SDS011;45222;52.458;20.914;2024-03-23T01:59:22;24.80;;;19.70;;
59416;SDS011;45222;52.458;20.914;2024-03-23T02:03:22;24.40;;;20.40;;
59416;SDS011;45222;52.458;20.914;2024-03-23T02:07:08;25.60;;;20.30;;
59416;SDS011;45222;52.458;20.914;2024-03-23T02:10:53;23.90;;;20.30;;
59416;SDS011;45222;52.458;20.914;2024-03-23T02:14:37;24.80;;;20.20;;
59416;SDS011;45222;52.458;20.914;2024-03-23T02:18:22;24.10;;;20.20;;
59416;SDS011;45222;52.458;20.914;2024-03-23T02:22:07;28.30;;;22.10;;
59416;SDS011;45222;52.458;20.914;2024-03-23T02:25:53;26.30;;;21.90;;
59416;SDS011;45222;52.458;20.914;2024-03-23T02:29:38;26.70;;;22.20;;
59416;SDS011;45222;52.458;20.914;2024-03-23T02:33:22;26.80;;;21.40;;
59416;SDS011;45222;52.458;20.914;2024-03-23T02:37:10;26.80;;;21.90;;
59416;SDS011;45222;52.458;20.914;2024-03-23T02:41:00;26.40;;;23.30;;
59416;SDS011;45222;52.458;20.914;2024-03-23T02:44:46;25.40;;;21.10;;
59416;SDS011;45222;52.458;20.914;2024-03-23T02:48:31;26.30;;;21.80;;
59416;SDS011;45222;52.458;20.914;2024-03-23T02:52:15;25.50;;;21.40;;
59416;SDS011;45222;52.458;20.914;2024-03-23T02:56:00;24.50;;;20.50;;
59416;SDS011;45222;52.458;20.914;2024-03-23T02:59:44;25.70;;;22.00;;
59416;SDS011;45222;52.458;20.914;2024-03-23T03:03:29;29.20;;;23.30;;
59416;SDS011;45222;52.458;20.914;2024-03-23T03:07:14;28.50;;;22.70;;
59416;SDS011;45222;52.458;20.914;2024-03-23T03:10:58;25.10;;;21.80;;
59416;SDS011;45222;52.458;20.914;2024-03-23T03:14:43;25.10;;;21.90;;
59416;SDS011;45222;52.458;20.914;2024-03-23T03:18:27;27.30;;;22.10;;
59416;SDS011;45222;52.458;20.914;2024-03-23T03:22:13;26.10;;;22.30;;
59416;SDS011;45222;52.458;20.914;2024-03-23T03:25:57;26.50;;;22.10;;
59416;SDS011;45222;52.458;20.914;2024-03-23T03:29:42;25.30;;;21.40;;
59416;SDS011;45222;52.458;20.914;2024-03-23T03:33:27;26.90;;;22.90;;
59416;SDS011;45222;52.458;20.914;2024-03-23T03:37:12;27.50;;;22.40;;
59416;SDS011;45222;52.458;20.914;2024-03-23T03:40:56;26.70;;;23.20;;
59416;SDS011;45222;52.458;20.914;2024-03-23T03:44:42;28.00;;;24.30;;
59416;SDS011;45222;52.458;20.914;2024-03-23T03:48:26;27.10;;;23.60;;
59416;SDS011;45222;52.458;20.914;2024-03-23T03:52:12;25.20;;;21.90;;
59416;SDS011;45222;52.458;20.914;2024-03-23T03:55:56;25.50;;;22.30;;
59416;SDS011;45222;52.458;20.914;2024-03-23T03:59:45;25.10;;;21.30;;
59416;SDS011;45222;52.458;20.914;2024-03-23T04:03:29;24.00;;;21.00;;
59416;SDS011;45222;52.458;20.914;2024-03-23T04:07:14;23.30;;;20.20;;
59416;SDS011;45222;52.458;20.914;2024-03-23T04:11:00;25.70;;;21.70;;
59416;SDS011;45222;52.458;20.914;2024-03-23T04:14:45;25.70;;;22.70;;
59416;SDS011;45222;52.458;20.914;2024-03-23T04:18:30;25.90;;;21.40;;
59416;SDS011;45222;52.458;20.914;2024-03-23T04:22:15;24.00;;;21.20;;
59416;SDS011;45222;52.458;20.914;2024-03-23T04:26:03;24.60;;;20.90;;
59416;SDS011;45222;52.458;20.914;2024-03-23T04:29:48;25.10;;;22.40;;
59416;SDS011;45222;52.458;20.914;2024-03-23T04:33:33;26.80;;;23.70;;
59416;SDS011;45222;52.458;20.914;2024-03-23T04:37:18;23.70;;;20.90;;
59416;SDS011;45222;52.458;20.914;2024-03-23T04:41:03;26.10;;;22.40;;
59416;SDS011;45222;52.458;20.914;2024-03-23T04:44:48;27.60;;;23.90;;
59416;SDS011;45222;52.458;20.914;2024-03-23T04:48:32;26.50;;;23.10;;
59416;SDS011;45222;52.458;20.914;2024-03-23T04:52:17;27.00;;;22.60;;
59416;SDS011;45222;52.458;20.914;2024-03-23T04:56:02;25.30;;;22.30;;
59416;SDS011;45222;52.458;20.914;2024-03-23T04:59:47;25.90;;;22.10;;
59416;SDS011;45222;52.458;20.914;2024-03-23T05:03:32;31.20;;;26.30;;
59416;SDS011;45222;52.458;20.914;2024-03-23T05:07:16;28.70;;;24.40;;
59416;SDS011;45222;52.458;20.914;2024-03-23T05:11:01;32.10;;;27.50;;
59416;SDS011;45222;52.458;20.914;2024-03-23T05:14:46;28.90;;;25.10;;
59416;SDS011;45222;52.458;20.914;2024-03-23T05:18:30;28.00;;;23.90;;
59416;SDS011;45222;52.458;20.914;2024-03-23T05:22:15;29.70;;;24.70;;
59416;SDS011;45222;52.458;20.914;2024-03-23T05:26:00;28.90;;;23.50;;
59416;SDS011;45222;52.458;20.914;2024-03-23T05:29:44;25.50;;;22.10;;
59416;SDS011;45222;52.458;20.914;2024-03-23T05:33:30;25.40;;;21.60;;
59416;SDS011;45222;52.458;20.914;2024-03-23T05:37:15;24.10;;;20.60;;
59416;SDS011;45222;52.458;20.914;2024-03-23T05:41:00;25.10;;;21.30;;
59416;SDS011;45222;52.458;20.914;2024-03-23T05:44:45;27.00;;;22.70;;
59416;SDS011;45222;52.458;20.914;2024-03-23T05:48:29;27.80;;;24.20;;
59416;SDS011;45222;52.458;20.914;2024-03-23T05:52:14;35.30;;;28.60;;
59416;SDS011;45222;52.458;20.914;2024-03-23T05:56:02;26.50;;;22.60;;
59416;SDS011;45222;52.458;20.914;2024-03-23T05:59:48;26.20;;;22.70;;
59416;SDS011;45222;52.458;20.914;2024-03-23T06:03:33;26.30;;;22.70;;
59416;SDS011;45222;52.458;20.914;2024-03-23T06:07:19;25.10;;;21.70;;
59416;SDS011;45222;52.458;20.914;2024-03-23T06:11:04;24.60;;;21.10;;
59416;SDS011;45222;52.458;20.914;2024-03-23T06:14:49;27.80;;;22.60;;
59416;SDS011;45222;52.458;20.914;2024-03-23T06:18:34;27.60;;;24.50;;
59416;SDS011;45222;52.458;20.914;2024-03-23T06:22:18;26.10;;;23.10;;
59416;SDS011;45222;52.458;20.914;2024-03-23T06:26:04;26.30;;;22.10;;
59416;SDS011;45222;52.458;20.914;2024-03-23T06:29:48;25.60;;;21.40;;
59416;SDS011;45222;52.458;20.914;2024-03-23T06:33:33;25.30;;;21.40;;
59416;SDS011;45222;52.458;20.914;2024-03-23T06:37:17;28.20;;;21.80;;
59416;SDS011;45222;52.458;20.914;2024-03-23T06:41:02;25.00;;;21.30;;
59416;SDS011;45222;52.458;20.914;2024-03-23T06:44:47;25.20;;;21.20;;
59416;SDS011;45222;52.458;20.914;2024-03-23T06:48:32;24.10;;;20.00;;
59416;SDS011;45222;52.458;20.914;2024-03-23T06:52:17;23.40;;;19.60;;
59416;SDS011;45222;52.458;20.914;2024-03-23T06:56:02;22.90;;;19.20;;
59416;SDS011;45222;52.458;20.914;2024-03-23T06:59:47;22.30;;;19.20;;
59416;SDS011;45222;52.458;20.914;2024-03-23T07:03:32;23.80;;;20.60;;
59416;SDS011;45222;52.458;20.914;2024-03-23T07:07:20;23.00;;;19.70;;
59416;SDS011;45222;52.458;20.914;2024-03-23T07:11:05;23.70;;;19.70;;
59416;SDS011;45222;52.458;20.914;2024-03-23T07:14:50;23.80;;;20.20;;
59416;SDS011;45222;52.458;20.914;2024-03-23T07:18:35;24.20;;;20.10;;
59416;SDS011;45222;52.458;20.914;2024-03-23T07:22:19;21.80;;;19.30;;
59416;SDS011;45222;52.458;20.914;2024-03-23T07:26:05;22.90;;;20.40;;
59416;SDS011;45222;52.458;20.914;2024-03-23T07:29:51;24.80;;;22.10;;
59416;SDS011;45222;52.458;20.914;2024-03-23T07:33:36;23.10;;;20.00;;
59416;SDS011;45222;52.458;20.914;2024-03-23T07:37:25;23.30;;;20.60;;
59416;SDS011;45222;52.458;20.914;2024-03-23T07:41:10;22.30;;;19.80;;
59416;SDS011;45222;52.458;20.914;2024-03-23T07:44:58;24.50;;;21.90;;
59416;SDS011;45222;52.458;20.914;2024-03-23T07:48:42;24.20;;;20.90;;
59416;SDS011;45222;52.458;20.914;2024-03-23T07:52:28;26.90;;;23.50;;
59416;SDS011;45222;52.458;20.914;2024-03-23T07:56:13;23.40;;;20.90;;
59416;SDS011;45222;52.458;20.914;2024-03-23T07:59:58;24.10;;;21.50;;
59416;SDS011;45222;52.458;20.914;2024-03-23T08:03:43;24.60;;;22.00;;
59416;SDS011;45222;52.458;20.914;2024-03-23T08:07:29;23.00;;;20.10;;
59416;SDS011;45222;52.458;20.914;2024-03-23T08:11:14;24.80;;;22.00;;
59416;SDS011;45222;52.458;20.914;2024-03-23T08:14:58;25.50;;;21.90;;
59416;SDS011;45222;52.458;20.914;2024-03-23T08:18:43;25.80;;;22.50;;
59416;SDS011;45222;52.458;20.914;2024-03-23T08:22:27;23.60;;;21.10;;
59416;SDS011;45222;52.458;20.914;2024-03-23T08:26:15;23.80;;;19.90;;
59416;SDS011;45222;52.458;20.914;2024-03-23T08:30:01;23.10;;;19.40;;
59416;SDS011;45222;52.458;20.914;2024-03-23T08:33:45;24.50;;;20.80;;
59416;SDS011;45222;52.458;20.914;2024-03-23T08:37:31;26.80;;;22.30;;
59416;SDS011;45222;52.458;20.914;2024-03-23T08:41:16;24.30;;;20.30;;
59416;SDS011;45222;52.458;20.914;2024-03-23T08:45:00;26.20;;;23.00;;
59416;SDS011;45222;52.458;20.914;2024-03-23T08:48:46;24.80;;;20.30;;
59416;SDS011;45222;52.458;20.914;2024-03-23T08:52:32;22.90;;;20.10;;
59416;SDS011;45222;52.458;20.914;2024-03-23T08:56:17;22.20;;;18.90;;
59416;SDS011;45222;52.458;20.914;2024-03-23T09:00:04;24.10;;;20.20;;
59416;SDS011;45222;52.458;20.914;2024-03-23T09:03:53;24.70;;;19.40;;
59416;SDS011;45222;52.458;20.914;2024-03-23T09:07:37;21.20;;;17.80;;
59416;SDS011;45222;52.458;20.914;2024-03-23T09:11:22;20.50;;;17.10;;
59416;SDS011;45222;52.458;20.914;2024-03-23T09:15:07;21.60;;;16.30;;
59416;SDS011;45222;52.458;20.914;2024-03-23T09:18:53;19.90;;;16.70;;
59416;SDS011;45222;52.458;20.914;2024-03-23T09:22:37;22.20;;;18.10;;
59416;SDS011;45222;52.458;20.914;2024-03-23T09:26:22;22.00;;;17.40;;
59416;SDS011;45222;52.458;20.914;2024-03-23T09:30:08;23.00;;;16.90;;
59416;SDS011;45222;52.458;20.914;2024-03-23T09:33:55;20.10;;;15.90;;
59416;SDS011;45222;52.458;20.914;2024-03-23T09:37:39;21.80;;;17.60;;
59416;SDS011;45222;52.458;20.914;2024-03-23T09:41:24;20.80;;;16.40;;
59416;SDS011;45222;52.458;20.914;2024-03-23T09:45:11;23.40;;;18.40;;
59416;SDS011;45222;52.458;20.914;2024-03-23T09:49:00;21.70;;;16.40;;
59416;SDS011;45222;52.458;20.914;2024-03-23T09:52:47;20.50;;;16.50;;
59416;SDS011;45222;52.458;20.914;2024-03-23T09:56:33;22.20;;;16.30;;
59416;SDS011;45222;52.458;20.914;2024-03-23T10:00:18;22.30;;;16.30;;
59416;SDS011;45222;52.458;20.914;2024-03-23T10:04:03;19.70;;;16.90;;
59416;SDS011;45222;52.458;20.914;2024-03-23T10:07:49;23.00;;;18.00;;
59416;SDS011;45222;52.458;20.914;2024-03-23T10:11:34;23.60;;;17.00;;
59416;SDS011;45222;52.458;20.914;2024-03-23T10:15:19;20.40;;;15.90;;
59416;SDS011;45222;52.458;20.914;2024-03-23T10:19:04;21.20;;;17.10;;
59416;SDS011;45222;52.458;20.914;2024-03-23T10:22:50;22.10;;;16.90;;
59416;SDS011;45222;52.458;20.914;2024-03-23T10:26:35;22.10;;;16.40;;
59416;SDS011;45222;52.458;20.914;2024-03-23T10:30:20;18.70;;;14.50;;
59416;SDS011;45222;52.458;20.914;2024-03-23T10:34:12;17.70;;;13.90;;
59416;SDS011;45222;52.458;20.914;2024-03-23T10:37:56;18.40;;;14.20;;
59416;SDS011;45222;52.458;20.914;2024-03-23T10:41:41;17.50;;;13.00;;
59416;SDS011;45222;52.458;20.914;2024-03-23T10:45:28;15.30;;;12.30;;
59416;SDS011;45222;52.458;20.914;2024-03-23T10:49:13;14.70;;;11.60;;
59416;SDS011;45222;52.458;20.914;2024-03-23T10:52:58;15.30;;;12.10;;
59416;SDS011;45222;52.458;20.914;2024-03-23T10:56:43;16.50;;;12.50;;
59416;SDS011;45222;52.458;20.914;2024-03-23T11:00:30;15.00;;;11.40;;
59416;SDS011;45222;52.458;20.914;2024-03-23T11:04:21;14.40;;;10.20;;
59416;SDS011;45222;52.458;20.914;2024-03-23T11:08:28;14.60;;;10.40;;
59416;SDS011;45222;52.458;20.914;2024-03-23T11:12:18;14.60;;;10.80;;
59416;SDS011;45222;52.458;20.914;2024-03-23T11:16:13;13.00;;;9.70;;
59416;SDS011;45222;52.458;20.914;2024-03-23T11:19:59;13.60;;;10.00;;
59416;SDS011;45222;52.458;20.914;2024-03-23T11:23:44;13.00;;;9.50;;
59416;SDS011;45222;52.458;20.914;2024-03-23T11:27:29;14.40;;;10.00;;
59416;SDS011;45222;52.458;20.914;2024-03-23T11:31:16;12.90;;;9.90;;
59416;SDS011;45222;52.458;20.914;2024-03-23T11:35:00;14.00;;;10.10;;
59416;SDS011;45222;52.458;20.914;2024-03-23T11:38:45;12.70;;;9.80;;
59416;SDS011;45222;52.458;20.914;2024-03-23T11:42:29;13.40;;;10.00;;
59416;SDS011;45222;52.458;20.914;2024-03-23T11:46:22;13.50;;;9.70;;
59416;SDS011;45222;52.458;20.914;2024-03-23T11:50:09;11.90;;;9.40;;
59416;SDS011;45222;52.458;20.914;2024-03-23T11:53:53;11.90;;;9.00;;
59416;SDS011;45222;52.458;20.914;2024-03-23T11:57:53;13.10;;;9.50;;
59416;SDS011;45222;52.458;20.914;2024-03-23T12:01:37;11.80;;;9.20;;
59416;SDS011;45222;52.458;20.914;2024-03-23T12:05:25;11.80;;;9.00;;
59416;SDS011;45222;52.458;20.914;2024-03-23T12:09:10;12.30;;;8.70;;
59416;SDS011;45222;52.458;20.914;2024-03-23T12:13:00;22.10;;;9.40;;
59416;SDS011;45222;52.458;20.914;2024-03-23T12:16:45;12.90;;;9.30;;
59416;SDS011;45222;52.458;20.914;2024-03-23T12:20:29;13.80;;;9.50;;
59416;SDS011;45222;52.458;20.914;2024-03-23T12:24:14;13.10;;;9.20;;
59416;SDS011;45222;52.458;20.914;2024-03-23T12:27:59;13.30;;;9.20;;
59416;SDS011;45222;52.458;20.914;2024-03-23T12:31:44;12.50;;;9.20;;
59416;SDS011;45222;52.458;20.914;2024-03-23T12:35:28;13.20;;;9.60;;
59416;SDS011;45222;52.458;20.914;2024-03-23T12:39:13;13.70;;;9.90;;
59416;SDS011;45222;52.458;20.914;2024-03-23T12:42:58;11.20;;;9.20;;
59416;SDS011;45222;52.458;20.914;2024-03-23T12:46:42;12.60;;;9.40;;
59416;SDS011;45222;52.458;20.914;2024-03-23T12:50:27;12.90;;;9.40;;
59416;SDS011;45222;52.458;20.914;2024-03-23T12:54:12;14.90;;;11.00;;
59416;SDS011;45222;52.458;20.914;2024-03-23T12:57:56;13.50;;;10.10;;
59416;SDS011;45222;52.458;20.914;2024-03-23T13:01:41;12.40;;;9.30;;
59416;SDS011;45222;52.458;20.914;2024-03-23T13:05:26;12.50;;;9.30;;
59416;SDS011;45222;52.458;20.914;2024-03-23T13:09:11;13.00;;;8.40;;
59416;SDS011;45222;52.458;20.914;2024-03-23T13:12:56;10.90;;;7.30;;
59416;SDS011;45222;52.458;20.914;2024-03-23T13:16:40;12.00;;;6.90;;
59416;SDS011;45222;52.458;20.914;2024-03-23T13:20:25;11.20;;;6.50;;
59416;SDS011;45222;52.458;20.914;2024-03-23T13:24:10;12.20;;;6.30;;
59416;SDS011;45222;52.458;20.914;2024-03-23T13:27:54;11.40;;;7.00;;
59416;SDS011;45222;52.458;20.914;2024-03-23T13:31:39;11.00;;;6.40;;
59416;SDS011;45222;52.458;20.914;2024-03-23T13:35:26;9.10;;;5.60;;
59416;SDS011;45222;52.458;20.914;2024-03-23T13:39:11;11.40;;;6.00;;
59416;SDS011;45222;52.458;20.914;2024-03-23T13:42:57;10.40;;;5.70;;
59416;SDS011;45222;52.458;20.914;2024-03-23T13:46:42;11.00;;;6.40;;
59416;SDS011;45222;52.458;20.914;2024-03-23T13:50:28;9.30;;;5.80;;
59416;SDS011;45222;52.458;20.914;2024-03-23T13:54:14;10.10;;;5.60;;
59416;SDS011;45222;52.458;20.914;2024-03-23T13:58:01;10.60;;;7.40;;
59416;SDS011;45222;52.458;20.914;2024-03-23T14:01:48;10.00;;;6.80;;
59416;SDS011;45222;52.458;20.914;2024-03-23T14:05:40;11.60;;;7.20;;
59416;SDS011;45222;52.458;20.914;2024-03-23T14:09:28;11.00;;;6.10;;
59416;SDS011;45222;52.458;20.914;2024-03-23T14:13:13;11.70;;;6.50;;
59416;SDS011;45222;52.458;20.914;2024-03-23T14:16:58;11.40;;;7.40;;
59416;SDS011;45222;52.458;20.914;2024-03-23T14:20:42;12.70;;;8.30;;
59416;SDS011;45222;52.458;20.914;2024-03-23T14:24:27;11.60;;;7.80;;
59416;SDS011;45222;52.458;20.914;2024-03-23T14:28:12;11.10;;;6.50;;
59416;SDS011;45222;52.458;20.914;2024-03-23T14:31:59;14.30;;;7.70;;
59416;SDS011;45222;52.458;20.914;2024-03-23T14:35:51;10.10;;;7.10;;
59416;SDS011;45222;52.458;20.914;2024-03-23T14:39:36;12.00;;;7.80;;
59416;SDS011;45222;52.458;20.914;2024-03-23T14:43:22;13.70;;;9.60;;
59416;SDS011;45222;52.458;20.914;2024-03-23T14:47:07;13.90;;;10.70;;
59416;SDS011;45222;52.458;20.914;2024-03-23T14:50:56;15.80;;;12.20;;
59416;SDS011;45222;52.458;20.914;2024-03-23T14:54:40;17.60;;;12.30;;
59416;SDS011;45222;52.458;20.914;2024-03-23T14:58:26;29.10;;;24.50;;
59416;SDS011;45222;52.458;20.914;2024-03-23T15:02:10;17.20;;;13.20;;
59416;SDS011;45222;52.458;20.914;2024-03-23T15:05:56;25.70;;;22.10;;
59416;SDS011;45222;52.458;20.914;2024-03-23T15:09:42;26.40;;;18.80;;
59416;SDS011;45222;52.458;20.914;2024-03-23T15:13:27;36.30;;;21.70;;
59416;SDS011;45222;52.458;20.914;2024-03-23T15:17:15;23.80;;;19.10;;
59416;SDS011;45222;52.458;20.914;2024-03-23T15:21:05;24.00;;;19.10;;
59416;SDS011;45222;52.458;20.914;2024-03-23T15:24:51;24.90;;;20.20;;
59416;SDS011;45222;52.458;20.914;2024-03-23T15:28:37;26.60;;;21.50;;
59416;SDS011;45222;52.458;20.914;2024-03-23T15:32:24;25.80;;;22.10;;
59416;SDS011;45222;52.458;20.914;2024-03-23T15:36:08;30.80;;;24.00;;
59416;SDS011;45222;52.458;20.914;2024-03-23T15:39:53;28.20;;;24.40;;
59416;SDS011;45222;52.458;20.914;2024-03-23T15:43:38;26.50;;;22.90;;
59416;SDS011;45222;52.458;20.914;2024-03-23T15:47:22;27.90;;;22.70;;
59416;SDS011;45222;52.458;20.914;2024-03-23T15:51:10;28.70;;;23.10;;
59416;SDS011;45222;52.458;20.914;2024-03-23T15:54:56;34.00;;;30.40;;
59416;SDS011;45222;52.458;20.914;2024-03-23T15:58:43;27.30;;;24.40;;
59416;SDS011;45222;52.458;20.914;2024-03-23T16:02:27;24.70;;;21.40;;
59416;SDS011;45222;52.458;20.914;2024-03-23T16:06:12;24.80;;;22.10;;
59416;SDS011;45222;52.458;20.914;2024-03-23T16:09:57;23.70;;;20.90;;
59416;SDS011;45222;52.458;20.914;2024-03-23T16:13:51;19.80;;;17.30;;
59416;SDS011;45222;52.458;20.914;2024-03-23T16:17:37;20.70;;;16.50;;
59416;SDS011;45222;52.458;20.914;2024-03-23T16:21:23;17.90;;;14.60;;
59416;SDS011;45222;52.458;20.914;2024-03-23T16:25:08;17.90;;;15.30;;
59416;SDS011;45222;52.458;20.914;2024-03-23T16:28:53;16.40;;;12.70;;
59416;SDS011;45222;52.458;20.914;2024-03-23T16:32:48;14.90;;;12.00;;
59416;SDS011;45222;52.458;20.914;2024-03-23T16:36:33;18.10;;;12.10;;
59416;SDS011;45222;52.458;20.914;2024-03-23T16:40:17;16.40;;;13.00;;
59416;SDS011;45222;52.458;20.914;2024-03-23T16:44:02;17.10;;;12.80;;
59416;SDS011;45222;52.458;20.914;2024-03-23T16:47:47;18.20;;;14.10;;
59416;SDS011;45222;52.458;20.914;2024-03-23T16:51:32;16.90;;;12.90;;
59416;SDS011;45222;52.458;20.914;2024-03-23T16:55:16;14.80;;;12.00;;
59416;SDS011;45222;52.458;20.914;2024-03-23T16:59:01;15.30;;;11.80;;
59416;SDS011;45222;52.458;20.914;2024-03-23T17:02:47;14.00;;;11.80;;
59416;SDS011;45222;52.458;20.914;2024-03-23T17:06:32;15.80;;;11.50;;
59416;SDS011;45222;52.458;20.914;2024-03-23T17:10:17;18.20;;;13.00;;
59416;SDS011;45222;52.458;20.914;2024-03-23T17:14:01;15.50;;;11.20;;
59416;SDS011;45222;52.458;20.914;2024-03-23T17:17:46;16.30;;;11.10;;
59416;SDS011;45222;52.458;20.914;2024-03-23T17:21:31;12.60;;;10.10;;
59416;SDS011;45222;52.458;20.914;2024-03-23T17:25:17;14.50;;;10.70;;
59416;SDS011;45222;52.458;20.914;2024-03-23T17:29:02;15.40;;;11.50;;
59416;SDS011;45222;52.458;20.914;2024-03-23T17:32:46;14.10;;;11.70;;
59416;SDS011;45222;52.458;20.914;2024-03-23T17:36:31;14.00;;;11.00;;
59416;SDS011;45222;52.458;20.914;2024-03-23T17:40:16;14.30;;;10.80;;
59416;SDS011;45222;52.458;20.914;2024-03-23T17:44:01;13.30;;;10.20;;
59416;SDS011;45222;52.458;20.914;2024-03-23T17:47:46;12.20;;;9.50;;
59416;SDS011;45222;52.458;20.914;2024-03-23T17:56:38;14.70;;;11.40;;
59416;SDS011;45222;52.458;20.914;2024-03-23T18:00:27;15.10;;;11.80;;
59416;SDS011;45222;52.458;20.914;2024-03-23T18:04:15;15.00;;;12.00;;
59416;SDS011;45222;52.458;20.914;2024-03-23T18:08:10;12.90;;;10.70;;
59416;SDS011;45222;52.458;20.914;2024-03-23T18:16:55;13.10;;;9.40;;
59416;SDS011;45222;52.458;20.914;2024-03-23T18:20:41;10.00;;;6.30;;
59416;SDS011;45222;52.458;20.914;2024-03-23T18:24:25;7.90;;;4.90;;
59416;SDS011;45222;52.458;20.914;2024-03-23T18:28:10;6.70;;;3.80;;
59416;SDS011;45222;52.458;20.914;2024-03-23T18:31:56;5.40;;;2.90;;
59416;SDS011;45222;52.458;20.914;2024-03-23T18:35:43;10.40;;;6.40;;
59416;SDS011;45222;52.458;20.914;2024-03-23T18:39:32;5.70;;;3.10;;
59416;SDS011;45222;52.458;20.914;2024-03-23T18:43:17;10.10;;;6.60;;
59416;SDS011;45222;52.458;20.914;2024-03-23T18:47:02;6.80;;;4.00;;
59416;SDS011;45222;52.458;20.914;2024-03-23T18:50:47;6.00;;;3.30;;
59416;SDS011;45222;52.458;20.914;2024-03-23T18:54:32;5.50;;;2.60;;
59416;SDS011;45222;52.458;20.914;2024-03-23T18:58:17;6.00;;;3.00;;
59416;SDS011;45222;52.458;20.914;2024-03-23T19:02:01;3.90;;;2.00;;
59416;SDS011;45222;52.458;20.914;2024-03-23T19:05:51;4.60;;;2.30;;
59416;SDS011;45222;52.458;20.914;2024-03-23T19:09:36;2.90;;;1.40;;
59416;SDS011;45222;52.458;20.914;2024-03-23T19:13:21;4.50;;;1.90;;
59416;SDS011;45222;52.458;20.914;2024-03-23T19:17:07;4.70;;;2.40;;
59416;SDS011;45222;52.458;20.914;2024-03-23T19:20:52;5.40;;;2.40;;
59416;SDS011;45222;52.458;20.914;2024-03-23T19:24:38;5.30;;;2.40;;
59416;SDS011;45222;52.458;20.914;2024-03-23T19:28:23;7.00;;;3.00;;
59416;SDS011;45222;52.458;20.914;2024-03-23T19:32:09;26.10;;;13.90;;
59416;SDS011;45222;52.458;20.914;2024-03-23T19:35:55;19.40;;;12.00;;
59416;SDS011;45222;52.458;20.914;2024-03-23T19:39:43;7.80;;;3.90;;
59416;SDS011;45222;52.458;20.914;2024-03-23T19:43:30;5.90;;;2.80;;
59416;SDS011;45222;52.458;20.914;2024-03-23T19:47:15;5.90;;;2.80;;
59416;SDS011;45222;52.458;20.914;2024-03-23T19:50:59;6.50;;;3.20;;
59416;SDS011;45222;52.458;20.914;2024-03-23T19:54:45;5.90;;;2.50;;
59416;SDS011;45222;52.458;20.914;2024-03-23T19:58:29;6.30;;;2.90;;
59416;SDS011;45222;52.458;20.914;2024-03-23T20:02:14;5.80;;;2.70;;
59416;SDS011;45222;52.458;20.914;2024-03-23T20:05:59;6.10;;;2.80;;
59416;SDS011;45222;52.458;20.914;2024-03-23T20:09:44;7.30;;;3.70;;
59416;SDS011;45222;52.458;20.914;2024-03-23T20:13:30;6.30;;;2.90;;
59416;SDS011;45222;52.458;20.914;2024-03-23T20:17:15;6.70;;;3.00;;
59416;SDS011;45222;52.458;20.914;2024-03-23T20:21:00;5.50;;;2.50;;
59416;SDS011;45222;52.458;20.914;2024-03-23T20:24:49;5.80;;;2.40;;
59416;SDS011;45222;52.458;20.914;2024-03-23T20:32:19;6.20;;;2.90;;
59416;SDS011;45222;52.458;20.914;2024-03-23T20:36:05;9.50;;;3.50;;
59416;SDS011;45222;52.458;20.914;2024-03-23T20:39:50;8.20;;;3.50;;
59416;SDS011;45222;52.458;20.914;2024-03-23T20:43:35;8.20;;;3.60;;
59416;SDS011;45222;52.458;20.914;2024-03-23T20:47:28;6.90;;;3.60;;
59416;SDS011;45222;52.458;20.914;2024-03-23T20:51:13;8.00;;;3.90;;
59416;SDS011;45222;52.458;20.914;2024-03-23T20:54:58;8.90;;;4.90;;
59416;SDS011;45222;52.458;20.914;2024-03-23T20:58:42;9.20;;;4.30;;
59416;SDS011;45222;52.458;20.914;2024-03-23T21:02:27;11.10;;;5.50;;
59416;SDS011;45222;52.458;20.914;2024-03-23T21:06:11;9.30;;;4.90;;
59416;SDS011;45222;52.458;20.914;2024-03-23T21:09:56;12.00;;;6.20;;
59416;SDS011;45222;52.458;20.914;2024-03-23T21:13:41;8.00;;;4.30;;
59416;SDS011;45222;52.458;20.914;2024-03-23T21:17:26;8.80;;;3.90;;
59416;SDS011;45222;52.458;20.914;2024-03-23T21:21:10;9.40;;;4.40;;
59416;SDS011;45222;52.458;20.914;2024-03-23T21:24:55;8.90;;;5.40;;
59416;SDS011;45222;52.458;20.914;2024-03-23T21:28:40;9.00;;;4.80;;
59416;SDS011;45222;52.458;20.914;2024-03-23T21:32:24;8.70;;;4.80;;
59416;SDS011;45222;52.458;20.914;2024-03-23T21:36:10;9.00;;;5.10;;
59416;SDS011;45222;52.458;20.914;2024-03-23T21:39:55;8.40;;;4.70;;
59416;SDS011;45222;52.458;20.914;2024-03-23T21:43:39;9.10;;;5.20;;
59416;SDS011;45222;52.458;20.914;2024-03-23T21:47:24;10.10;;;5.50;;
59416;SDS011;45222;52.458;20.914;2024-03-23T21:51:09;8.70;;;4.90;;
59416;SDS011;45222;52.458;20.914;2024-03-23T21:54:54;12.40;;;6.30;;
59416;SDS011;45222;52.458;20.914;2024-03-23T21:58:39;10.30;;;5.90;;
59416;SDS011;45222;52.458;20.914;2024-03-23T22:02:23;10.50;;;5.60;;
59416;SDS011;45222;52.458;20.914;2024-03-23T22:06:08;9.00;;;5.00;;
59416;SDS011;45222;52.458;20.914;2024-03-23T22:09:53;12.70;;;6.60;;
59416;SDS011;45222;52.458;20.914;2024-03-23T22:13:37;13.00;;;7.50;;
59416;SDS011;45222;52.458;20.914;2024-03-23T22:17:22;12.10;;;6.00;;
59416;SDS011;45222;52.458;20.914;2024-03-23T22:21:09;12.10;;;6.20;;
59416;SDS011;45222;52.458;20.914;2024-03-23T22:24:54;10.20;;;5.30;;
59416;SDS011;45222;52.458;20.914;2024-03-23T22:28:38;12.70;;;6.20;;
59416;SDS011;45222;52.458;20.914;2024-03-23T22:32:23;10.60;;;5.50;;
59416;SDS011;45222;52.458;20.914;2024-03-23T22:36:09;10.20;;;5.70;;
59416;SDS011;45222;52.458;20.914;2024-03-23T22:39:53;11.70;;;6.00;;
59416;SDS011;45222;52.458;20.914;2024-03-23T22:43:38;10.00;;;5.20;;
59416;SDS011;45222;52.458;20.914;2024-03-23T22:47:23;8.50;;;4.40;;
59416;SDS011;45222;52.458;20.914;2024-03-23T22:51:07;9.80;;;4.70;;
59416;SDS011;45222;52.458;20.914;2024-03-23T22:54:52;9.50;;;4.80;;
59416;SDS011;45222;52.458;20.914;2024-03-23T22:58:37;10.70;;;5.00;;